sensor_id;sensor_type;location;lat;lon;timestamp;P1;durP1;ratioP1;P2;durP2;ratioP2
52104;SDS011;38103;42.776;23.112;2023-04-15T00:01:20;11.05;;;3.40;;
52104;SDS011;38103;42.776;23.112;2023-04-15T00:03:46;11.77;;;3.30;;
52104;SDS011;38103;42.776;23.112;2023-04-15T00:06:12;11.18;;;3.33;;
52104;SDS011;38103;42.776;23.112;2023-04-15T00:08:38;13.20;;;3.30;;
52104;SDS011;38103;42.776;23.112;2023-04-15T00:11:04;9.63;;;3.72;;
52104;SDS011;38103;42.776;23.112;2023-04-15T00:13:30;10.70;;;4.85;;
52104;SDS011;38103;42.776;23.112;2023-04-15T00:15:57;10.52;;;3.10;;
52104;SDS011;38103;42.776;23.112;2023-04-15T00:18:23;10.60;;;3.10;;
52104;SDS011;38103;42.776;23.112;2023-04-15T00:20:49;11.38;;;3.13;;
52104;SDS011;38103;42.776;23.112;2023-04-15T00:23:14;12.05;;;3.20;;
52104;SDS011;38103;42.776;23.112;2023-04-15T00:25:39;13.88;;;3.10;;
52104;SDS011;38103;42.776;23.112;2023-04-15T00:28:05;10.52;;;2.60;;
52104;SDS011;38103;42.776;23.112;2023-04-15T00:30:30;13.00;;;2.92;;
52104;SDS011;38103;42.776;23.112;2023-04-15T00:32:55;14.48;;;3.13;;
52104;SDS011;38103;42.776;23.112;2023-04-15T00:35:21;10.60;;;3.70;;
52104;SDS011;38103;42.776;23.112;2023-04-15T00:37:47;10.38;;;3.33;;
52104;SDS011;38103;42.776;23.112;2023-04-15T00:40:13;14.10;;;3.55;;
52104;SDS011;38103;42.776;23.112;2023-04-15T00:42:42;10.15;;;3.22;;
52104;SDS011;38103;42.776;23.112;2023-04-15T00:45:08;9.18;;;2.58;;
52104;SDS011;38103;42.776;23.112;2023-04-15T00:47:35;13.35;;;2.97;;
52104;SDS011;38103;42.776;23.112;2023-04-15T00:50:01;10.40;;;2.72;;
52104;SDS011;38103;42.776;23.112;2023-04-15T00:52:27;12.40;;;3.10;;
52104;SDS011;38103;42.776;23.112;2023-04-15T00:54:52;9.15;;;2.80;;
52104;SDS011;38103;42.776;23.112;2023-04-15T00:57:18;8.63;;;2.60;;
52104;SDS011;38103;42.776;23.112;2023-04-15T00:59:46;9.73;;;2.90;;
52104;SDS011;38103;42.776;23.112;2023-04-15T01:02:11;10.77;;;3.05;;
52104;SDS011;38103;42.776;23.112;2023-04-15T01:04:36;12.88;;;3.25;;
52104;SDS011;38103;42.776;23.112;2023-04-15T01:07:02;12.40;;;3.15;;
52104;SDS011;38103;42.776;23.112;2023-04-15T01:09:27;9.00;;;3.10;;
52104;SDS011;38103;42.776;23.112;2023-04-15T01:11:53;11.82;;;3.10;;
52104;SDS011;38103;42.776;23.112;2023-04-15T01:14:18;12.93;;;3.15;;
52104;SDS011;38103;42.776;23.112;2023-04-15T01:16:45;11.45;;;3.00;;
52104;SDS011;38103;42.776;23.112;2023-04-15T01:19:10;11.93;;;3.25;;
52104;SDS011;38103;42.776;23.112;2023-04-15T01:21:40;14.60;;;4.88;;
52104;SDS011;38103;42.776;23.112;2023-04-15T01:24:07;10.20;;;3.75;;
52104;SDS011;38103;42.776;23.112;2023-04-15T01:26:36;12.73;;;4.32;;
52104;SDS011;38103;42.776;23.112;2023-04-15T01:29:02;12.10;;;3.33;;
52104;SDS011;38103;42.776;23.112;2023-04-15T01:31:27;11.20;;;3.50;;
52104;SDS011;38103;42.776;23.112;2023-04-15T01:33:53;10.90;;;3.13;;
52104;SDS011;38103;42.776;23.112;2023-04-15T01:36:18;9.27;;;2.80;;
52104;SDS011;38103;42.776;23.112;2023-04-15T01:38:44;12.98;;;3.40;;
52104;SDS011;38103;42.776;23.112;2023-04-15T01:41:10;13.68;;;3.17;;
52104;SDS011;38103;42.776;23.112;2023-04-15T01:43:35;9.18;;;2.90;;
52104;SDS011;38103;42.776;23.112;2023-04-15T01:46:01;10.23;;;3.17;;
52104;SDS011;38103;42.776;23.112;2023-04-15T01:48:27;11.05;;;3.30;;
52104;SDS011;38103;42.776;23.112;2023-04-15T01:50:53;10.88;;;3.38;;
52104;SDS011;38103;42.776;23.112;2023-04-15T01:53:22;9.18;;;3.20;;
52104;SDS011;38103;42.776;23.112;2023-04-15T01:55:47;10.38;;;3.10;;
52104;SDS011;38103;42.776;23.112;2023-04-15T01:58:13;8.70;;;2.75;;
52104;SDS011;38103;42.776;23.112;2023-04-15T02:00:39;13.63;;;3.22;;
52104;SDS011;38103;42.776;23.112;2023-04-15T02:03:04;7.47;;;2.42;;
52104;SDS011;38103;42.776;23.112;2023-04-15T02:05:30;10.48;;;2.90;;
52104;SDS011;38103;42.776;23.112;2023-04-15T02:07:56;11.80;;;3.45;;
52104;SDS011;38103;42.776;23.112;2023-04-15T02:10:21;10.30;;;2.70;;
52104;SDS011;38103;42.776;23.112;2023-04-15T02:12:47;9.27;;;2.95;;
52104;SDS011;38103;42.776;23.112;2023-04-15T02:15:12;10.15;;;2.80;;
52104;SDS011;38103;42.776;23.112;2023-04-15T02:17:38;9.75;;;2.78;;
52104;SDS011;38103;42.776;23.112;2023-04-15T02:20:03;9.68;;;3.22;;
52104;SDS011;38103;42.776;23.112;2023-04-15T02:22:35;13.20;;;3.40;;
52104;SDS011;38103;42.776;23.112;2023-04-15T02:25:01;11.70;;;4.15;;
52104;SDS011;38103;42.776;23.112;2023-04-15T02:27:26;11.13;;;3.85;;
52104;SDS011;38103;42.776;23.112;2023-04-15T02:29:53;11.98;;;3.35;;
52104;SDS011;38103;42.776;23.112;2023-04-15T02:32:18;12.68;;;3.78;;
52104;SDS011;38103;42.776;23.112;2023-04-15T02:34:44;10.77;;;3.63;;
52104;SDS011;38103;42.776;23.112;2023-04-15T02:37:10;11.50;;;4.28;;
52104;SDS011;38103;42.776;23.112;2023-04-15T02:39:36;10.23;;;3.70;;
52104;SDS011;38103;42.776;23.112;2023-04-15T02:42:02;11.27;;;3.90;;
52104;SDS011;38103;42.776;23.112;2023-04-15T02:44:29;10.35;;;3.55;;
52104;SDS011;38103;42.776;23.112;2023-04-15T02:46:56;10.68;;;3.03;;
52104;SDS011;38103;42.776;23.112;2023-04-15T02:49:22;9.13;;;2.97;;
52104;SDS011;38103;42.776;23.112;2023-04-15T02:51:47;9.98;;;3.15;;
52104;SDS011;38103;42.776;23.112;2023-04-15T02:54:17;10.45;;;3.33;;
52104;SDS011;38103;42.776;23.112;2023-04-15T02:56:43;9.13;;;3.60;;
52104;SDS011;38103;42.776;23.112;2023-04-15T02:59:09;11.23;;;3.45;;
52104;SDS011;38103;42.776;23.112;2023-04-15T03:01:34;10.73;;;3.70;;
52104;SDS011;38103;42.776;23.112;2023-04-15T03:04:00;11.60;;;3.90;;
52104;SDS011;38103;42.776;23.112;2023-04-15T03:06:25;12.00;;;3.90;;
52104;SDS011;38103;42.776;23.112;2023-04-15T03:08:51;12.15;;;3.78;;
52104;SDS011;38103;42.776;23.112;2023-04-15T03:11:16;11.27;;;3.90;;
52104;SDS011;38103;42.776;23.112;2023-04-15T03:13:42;14.55;;;4.15;;
52104;SDS011;38103;42.776;23.112;2023-04-15T03:16:08;11.15;;;3.97;;
52104;SDS011;38103;42.776;23.112;2023-04-15T03:18:34;11.45;;;3.78;;
52104;SDS011;38103;42.776;23.112;2023-04-15T03:20:59;18.13;;;4.90;;
52104;SDS011;38103;42.776;23.112;2023-04-15T03:23:25;11.52;;;3.60;;
52104;SDS011;38103;42.776;23.112;2023-04-15T03:25:50;10.60;;;3.72;;
52104;SDS011;38103;42.776;23.112;2023-04-15T03:28:15;11.23;;;3.72;;
52104;SDS011;38103;42.776;23.112;2023-04-15T03:30:41;13.63;;;3.38;;
52104;SDS011;38103;42.776;23.112;2023-04-15T03:33:06;12.20;;;3.70;;
52104;SDS011;38103;42.776;23.112;2023-04-15T03:35:32;11.90;;;3.13;;
52104;SDS011;38103;42.776;23.112;2023-04-15T03:37:58;10.43;;;3.45;;
52104;SDS011;38103;42.776;23.112;2023-04-15T03:40:23;11.32;;;3.33;;
52104;SDS011;38103;42.776;23.112;2023-04-15T03:42:49;16.15;;;3.22;;
52104;SDS011;38103;42.776;23.112;2023-04-15T03:45:14;14.57;;;3.00;;
52104;SDS011;38103;42.776;23.112;2023-04-15T03:47:40;10.57;;;3.33;;
52104;SDS011;38103;42.776;23.112;2023-04-15T03:50:06;10.15;;;3.22;;
52104;SDS011;38103;42.776;23.112;2023-04-15T03:52:32;10.63;;;3.20;;
52104;SDS011;38103;42.776;23.112;2023-04-15T03:54:57;10.65;;;2.90;;
52104;SDS011;38103;42.776;23.112;2023-04-15T03:57:23;12.48;;;3.22;;
52104;SDS011;38103;42.776;23.112;2023-04-15T03:59:48;11.20;;;3.25;;
52104;SDS011;38103;42.776;23.112;2023-04-15T04:02:13;10.60;;;3.47;;
52104;SDS011;38103;42.776;23.112;2023-04-15T04:04:39;8.85;;;2.80;;
52104;SDS011;38103;42.776;23.112;2023-04-15T04:07:04;11.30;;;3.00;;
52104;SDS011;38103;42.776;23.112;2023-04-15T04:09:30;9.85;;;3.00;;
52104;SDS011;38103;42.776;23.112;2023-04-15T04:11:56;8.93;;;2.65;;
52104;SDS011;38103;42.776;23.112;2023-04-15T04:14:21;10.00;;;3.20;;
52104;SDS011;38103;42.776;23.112;2023-04-15T04:16:53;8.43;;;2.65;;
52104;SDS011;38103;42.776;23.112;2023-04-15T04:19:18;9.90;;;2.95;;
52104;SDS011;38103;42.776;23.112;2023-04-15T04:21:44;9.00;;;3.15;;
52104;SDS011;38103;42.776;23.112;2023-04-15T04:24:10;8.73;;;2.90;;
52104;SDS011;38103;42.776;23.112;2023-04-15T04:26:36;9.45;;;2.88;;
52104;SDS011;38103;42.776;23.112;2023-04-15T04:29:01;13.15;;;3.42;;
52104;SDS011;38103;42.776;23.112;2023-04-15T04:31:27;17.23;;;3.97;;
52104;SDS011;38103;42.776;23.112;2023-04-15T04:33:52;10.63;;;3.40;;
52104;SDS011;38103;42.776;23.112;2023-04-15T04:36:17;12.18;;;4.38;;
52104;SDS011;38103;42.776;23.112;2023-04-15T04:38:43;12.00;;;3.40;;
52104;SDS011;38103;42.776;23.112;2023-04-15T04:41:08;13.35;;;3.95;;
52104;SDS011;38103;42.776;23.112;2023-04-15T04:43:33;15.02;;;4.20;;
52104;SDS011;38103;42.776;23.112;2023-04-15T04:45:59;14.63;;;3.63;;
52104;SDS011;38103;42.776;23.112;2023-04-15T04:48:24;11.88;;;3.78;;
52104;SDS011;38103;42.776;23.112;2023-04-15T04:50:50;13.50;;;4.70;;
52104;SDS011;38103;42.776;23.112;2023-04-15T04:53:16;15.70;;;5.32;;
52104;SDS011;38103;42.776;23.112;2023-04-15T04:55:42;14.95;;;5.03;;
52104;SDS011;38103;42.776;23.112;2023-04-15T04:58:07;14.18;;;3.88;;
52104;SDS011;38103;42.776;23.112;2023-04-15T05:00:32;12.73;;;3.90;;
52104;SDS011;38103;42.776;23.112;2023-04-15T05:02:58;15.18;;;5.30;;
52104;SDS011;38103;42.776;23.112;2023-04-15T05:05:23;11.50;;;3.65;;
52104;SDS011;38103;42.776;23.112;2023-04-15T05:07:49;9.32;;;2.50;;
52104;SDS011;38103;42.776;23.112;2023-04-15T05:10:15;10.00;;;2.75;;
52104;SDS011;38103;42.776;23.112;2023-04-15T05:12:42;12.52;;;2.78;;
52104;SDS011;38103;42.776;23.112;2023-04-15T05:15:07;10.43;;;2.83;;
52104;SDS011;38103;42.776;23.112;2023-04-15T05:17:33;11.07;;;2.97;;
52104;SDS011;38103;42.776;23.112;2023-04-15T05:19:59;10.93;;;3.35;;
52104;SDS011;38103;42.776;23.112;2023-04-15T05:22:25;10.27;;;3.17;;
52104;SDS011;38103;42.776;23.112;2023-04-15T05:24:50;11.13;;;3.10;;
52104;SDS011;38103;42.776;23.112;2023-04-15T05:27:16;10.38;;;3.20;;
52104;SDS011;38103;42.776;23.112;2023-04-15T05:29:43;9.63;;;2.92;;
52104;SDS011;38103;42.776;23.112;2023-04-15T05:32:08;13.05;;;3.75;;
52104;SDS011;38103;42.776;23.112;2023-04-15T05:34:34;11.13;;;2.90;;
52104;SDS011;38103;42.776;23.112;2023-04-15T05:37:00;10.30;;;2.72;;
52104;SDS011;38103;42.776;23.112;2023-04-15T05:39:26;10.75;;;3.03;;
52104;SDS011;38103;42.776;23.112;2023-04-15T05:41:51;12.00;;;4.32;;
52104;SDS011;38103;42.776;23.112;2023-04-15T05:44:17;10.00;;;3.05;;
52104;SDS011;38103;42.776;23.112;2023-04-15T05:46:42;9.63;;;2.50;;
52104;SDS011;38103;42.776;23.112;2023-04-15T05:49:08;14.38;;;4.43;;
52104;SDS011;38103;42.776;23.112;2023-04-15T05:51:33;13.40;;;4.65;;
52104;SDS011;38103;42.776;23.112;2023-04-15T05:53:58;10.43;;;3.33;;
52104;SDS011;38103;42.776;23.112;2023-04-15T05:56:24;11.43;;;3.25;;
52104;SDS011;38103;42.776;23.112;2023-04-15T05:58:51;15.32;;;2.80;;
52104;SDS011;38103;42.776;23.112;2023-04-15T06:01:16;9.80;;;2.42;;
52104;SDS011;38103;42.776;23.112;2023-04-15T06:03:42;8.73;;;2.40;;
52104;SDS011;38103;42.776;23.112;2023-04-15T06:06:07;10.68;;;2.80;;
52104;SDS011;38103;42.776;23.112;2023-04-15T06:08:33;12.13;;;3.90;;
52104;SDS011;38103;42.776;23.112;2023-04-15T06:10:59;10.88;;;2.88;;
52104;SDS011;38103;42.776;23.112;2023-04-15T06:13:25;8.65;;;2.60;;
52104;SDS011;38103;42.776;23.112;2023-04-15T06:15:51;9.35;;;2.50;;
52104;SDS011;38103;42.776;23.112;2023-04-15T06:18:17;10.20;;;2.90;;
52104;SDS011;38103;42.776;23.112;2023-04-15T06:20:44;10.10;;;3.17;;
52104;SDS011;38103;42.776;23.112;2023-04-15T06:23:09;11.10;;;2.97;;
52104;SDS011;38103;42.776;23.112;2023-04-15T06:25:35;9.02;;;2.60;;
52104;SDS011;38103;42.776;23.112;2023-04-15T06:28:00;9.55;;;2.83;;
52104;SDS011;38103;42.776;23.112;2023-04-15T06:30:26;9.60;;;2.80;;
52104;SDS011;38103;42.776;23.112;2023-04-15T06:32:51;21.85;;;11.38;;
52104;SDS011;38103;42.776;23.112;2023-04-15T06:35:17;14.32;;;4.22;;
52104;SDS011;38103;42.776;23.112;2023-04-15T06:37:43;10.98;;;2.97;;
52104;SDS011;38103;42.776;23.112;2023-04-15T06:40:08;12.20;;;4.00;;
52104;SDS011;38103;42.776;23.112;2023-04-15T06:42:34;11.68;;;3.30;;
52104;SDS011;38103;42.776;23.112;2023-04-15T06:45:00;9.68;;;2.60;;
52104;SDS011;38103;42.776;23.112;2023-04-15T06:47:26;12.27;;;2.80;;
52104;SDS011;38103;42.776;23.112;2023-04-15T06:49:51;11.25;;;3.20;;
52104;SDS011;38103;42.776;23.112;2023-04-15T06:52:17;9.30;;;2.80;;
52104;SDS011;38103;42.776;23.112;2023-04-15T06:54:42;9.55;;;2.90;;
52104;SDS011;38103;42.776;23.112;2023-04-15T06:57:07;10.15;;;2.45;;
52104;SDS011;38103;42.776;23.112;2023-04-15T06:59:33;8.60;;;2.72;;
52104;SDS011;38103;42.776;23.112;2023-04-15T07:01:59;9.50;;;2.40;;
52104;SDS011;38103;42.776;23.112;2023-04-15T07:04:25;8.52;;;2.30;;
52104;SDS011;38103;42.776;23.112;2023-04-15T07:06:51;12.38;;;3.38;;
52104;SDS011;38103;42.776;23.112;2023-04-15T07:09:18;10.60;;;4.15;;
52104;SDS011;38103;42.776;23.112;2023-04-15T07:11:43;7.47;;;2.15;;
52104;SDS011;38103;42.776;23.112;2023-04-15T07:14:09;7.10;;;2.22;;
52104;SDS011;38103;42.776;23.112;2023-04-15T07:16:35;9.00;;;2.58;;
52104;SDS011;38103;42.776;23.112;2023-04-15T07:19:00;8.13;;;2.45;;
52104;SDS011;38103;42.776;23.112;2023-04-15T07:21:25;8.63;;;2.20;;
52104;SDS011;38103;42.776;23.112;2023-04-15T07:23:51;9.32;;;2.30;;
52104;SDS011;38103;42.776;23.112;2023-04-15T07:26:17;8.55;;;2.20;;
52104;SDS011;38103;42.776;23.112;2023-04-15T07:28:42;7.63;;;2.40;;
52104;SDS011;38103;42.776;23.112;2023-04-15T07:31:07;10.27;;;3.08;;
52104;SDS011;38103;42.776;23.112;2023-04-15T07:33:33;9.90;;;2.25;;
52104;SDS011;38103;42.776;23.112;2023-04-15T07:35:58;8.75;;;2.50;;
52104;SDS011;38103;42.776;23.112;2023-04-15T07:38:24;7.20;;;2.30;;
52104;SDS011;38103;42.776;23.112;2023-04-15T07:40:50;9.98;;;2.45;;
52104;SDS011;38103;42.776;23.112;2023-04-15T07:43:15;9.27;;;2.20;;
52104;SDS011;38103;42.776;23.112;2023-04-15T07:45:40;7.65;;;2.20;;
52104;SDS011;38103;42.776;23.112;2023-04-15T07:48:06;8.45;;;2.25;;
52104;SDS011;38103;42.776;23.112;2023-04-15T07:50:32;8.07;;;2.10;;
52104;SDS011;38103;42.776;23.112;2023-04-15T07:52:57;7.68;;;2.20;;
52104;SDS011;38103;42.776;23.112;2023-04-15T08:32:54;9.43;;;2.20;;
52104;SDS011;38103;42.776;23.112;2023-04-15T08:35:20;5.45;;;1.63;;
52104;SDS011;38103;42.776;23.112;2023-04-15T08:37:46;5.55;;;1.85;;
52104;SDS011;38103;42.776;23.112;2023-04-15T08:40:11;6.75;;;2.33;;
52104;SDS011;38103;42.776;23.112;2023-04-15T09:36:04;7.65;;;2.08;;
52104;SDS011;38103;42.776;23.112;2023-04-15T09:38:30;5.90;;;1.90;;
52104;SDS011;38103;42.776;23.112;2023-04-15T09:40:56;6.03;;;1.80;;
52104;SDS011;38103;42.776;23.112;2023-04-15T09:43:35;6.75;;;1.90;;
52104;SDS011;38103;42.776;23.112;2023-04-15T09:46:05;10.80;;;2.95;;
52104;SDS011;38103;42.776;23.112;2023-04-15T09:48:31;11.48;;;4.05;;
52104;SDS011;38103;42.776;23.112;2023-04-15T09:50:56;9.35;;;2.42;;
52104;SDS011;38103;42.776;23.112;2023-04-15T09:53:23;4.25;;;1.70;;
52104;SDS011;38103;42.776;23.112;2023-04-15T09:55:50;6.88;;;1.90;;
52104;SDS011;38103;42.776;23.112;2023-04-15T10:00:46;7.15;;;1.98;;
52104;SDS011;38103;42.776;23.112;2023-04-15T10:03:14;4.93;;;1.80;;
52104;SDS011;38103;42.776;23.112;2023-04-15T10:05:51;8.18;;;2.05;;
52104;SDS011;38103;42.776;23.112;2023-04-15T10:08:17;6.93;;;1.70;;
52104;SDS011;38103;42.776;23.112;2023-04-15T10:10:44;10.98;;;3.17;;
52104;SDS011;38103;42.776;23.112;2023-04-15T10:13:12;7.80;;;1.98;;
52104;SDS011;38103;42.776;23.112;2023-04-15T10:15:43;31.15;;;12.70;;
52104;SDS011;38103;42.776;23.112;2023-04-15T10:18:12;11.18;;;3.55;;
52104;SDS011;38103;42.776;23.112;2023-04-15T10:20:41;6.40;;;1.75;;
52104;SDS011;38103;42.776;23.112;2023-04-15T10:23:08;8.30;;;2.15;;
52104;SDS011;38103;42.776;23.112;2023-04-15T10:25:33;10.38;;;4.45;;
52104;SDS011;38103;42.776;23.112;2023-04-15T10:28:00;9.27;;;1.85;;
52104;SDS011;38103;42.776;23.112;2023-04-15T10:30:26;6.43;;;1.75;;
52104;SDS011;38103;42.776;23.112;2023-04-15T10:32:52;4.28;;;1.70;;
52104;SDS011;38103;42.776;23.112;2023-04-15T10:35:19;5.70;;;1.92;;
52104;SDS011;38103;42.776;23.112;2023-04-15T10:37:46;8.80;;;1.83;;
52104;SDS011;38103;42.776;23.112;2023-04-15T10:40:24;6.60;;;1.73;;
52104;SDS011;38103;42.776;23.112;2023-04-15T10:42:53;7.78;;;1.92;;
52104;SDS011;38103;42.776;23.112;2023-04-15T10:45:19;5.25;;;2.13;;
52104;SDS011;38103;42.776;23.112;2023-04-15T10:47:45;4.70;;;1.50;;
52104;SDS011;38103;42.776;23.112;2023-04-15T10:50:10;18.80;;;3.58;;
52104;SDS011;38103;42.776;23.112;2023-04-15T10:52:36;10.55;;;3.45;;
52104;SDS011;38103;42.776;23.112;2023-04-15T10:55:17;9.88;;;2.80;;
52104;SDS011;38103;42.776;23.112;2023-04-15T10:57:45;10.52;;;2.75;;
52104;SDS011;38103;42.776;23.112;2023-04-15T11:00:11;4.32;;;1.50;;
52104;SDS011;38103;42.776;23.112;2023-04-15T11:05:08;11.75;;;3.20;;
52104;SDS011;38103;42.776;23.112;2023-04-15T11:07:35;10.45;;;2.90;;
52104;SDS011;38103;42.776;23.112;2023-04-15T11:10:49;6.50;;;1.80;;
52104;SDS011;38103;42.776;23.112;2023-04-15T11:12:50;7.13;;;1.50;;
52104;SDS011;38103;42.776;23.112;2023-04-15T11:15:30;10.63;;;3.30;;
52104;SDS011;38103;42.776;23.112;2023-04-15T11:21:05;5.28;;;1.63;;
52104;SDS011;38103;42.776;23.112;2023-04-15T11:23:33;5.47;;;1.60;;
52104;SDS011;38103;42.776;23.112;2023-04-15T11:25:59;3.53;;;1.45;;
52104;SDS011;38103;42.776;23.112;2023-04-15T11:28:26;7.50;;;2.10;;
52104;SDS011;38103;42.776;23.112;2023-04-15T11:30:55;5.88;;;1.60;;
52104;SDS011;38103;42.776;23.112;2023-04-15T11:33:21;5.70;;;1.63;;
52104;SDS011;38103;42.776;23.112;2023-04-15T11:35:48;7.47;;;1.90;;
52104;SDS011;38103;42.776;23.112;2023-04-15T11:38:14;4.15;;;1.48;;
52104;SDS011;38103;42.776;23.112;2023-04-15T11:40:41;4.75;;;1.50;;
52104;SDS011;38103;42.776;23.112;2023-04-15T11:43:08;5.97;;;1.90;;
52104;SDS011;38103;42.776;23.112;2023-04-15T11:45:35;6.47;;;2.15;;
52104;SDS011;38103;42.776;23.112;2023-04-15T11:48:09;7.55;;;1.98;;
52104;SDS011;38103;42.776;23.112;2023-04-15T11:50:36;4.03;;;1.50;;
52104;SDS011;38103;42.776;23.112;2023-04-15T11:53:04;6.55;;;1.85;;
52104;SDS011;38103;42.776;23.112;2023-04-15T11:55:31;5.20;;;1.80;;
52104;SDS011;38103;42.776;23.112;2023-04-15T11:58:16;4.95;;;1.80;;
52104;SDS011;38103;42.776;23.112;2023-04-15T12:13:48;4.72;;;1.65;;
52104;SDS011;38103;42.776;23.112;2023-04-15T12:16:17;5.82;;;1.95;;
52104;SDS011;38103;42.776;23.112;2023-04-15T12:18:46;5.65;;;1.60;;
52104;SDS011;38103;42.776;23.112;2023-04-15T12:21:17;3.78;;;1.50;;
52104;SDS011;38103;42.776;23.112;2023-04-15T12:23:53;5.85;;;1.73;;
52104;SDS011;38103;42.776;23.112;2023-04-15T12:26:27;5.70;;;1.60;;
52104;SDS011;38103;42.776;23.112;2023-04-15T12:28:55;4.97;;;1.40;;
52104;SDS011;38103;42.776;23.112;2023-04-15T12:31:25;6.13;;;1.70;;
52104;SDS011;38103;42.776;23.112;2023-04-15T12:33:51;6.47;;;2.25;;
52104;SDS011;38103;42.776;23.112;2023-04-15T12:36:19;4.25;;;1.70;;
52104;SDS011;38103;42.776;23.112;2023-04-15T12:38:45;6.95;;;1.77;;
52104;SDS011;38103;42.776;23.112;2023-04-15T12:41:10;3.70;;;1.50;;
52104;SDS011;38103;42.776;23.112;2023-04-15T12:43:36;5.35;;;1.75;;
52104;SDS011;38103;42.776;23.112;2023-04-15T12:46:01;4.78;;;1.60;;
52104;SDS011;38103;42.776;23.112;2023-04-15T12:48:26;5.85;;;2.00;;
52104;SDS011;38103;42.776;23.112;2023-04-15T12:50:52;3.92;;;1.70;;
52104;SDS011;38103;42.776;23.112;2023-04-15T12:53:17;6.15;;;1.75;;
52104;SDS011;38103;42.776;23.112;2023-04-15T12:55:43;4.70;;;1.60;;
52104;SDS011;38103;42.776;23.112;2023-04-15T12:58:09;5.07;;;1.50;;
52104;SDS011;38103;42.776;23.112;2023-04-15T13:00:36;5.20;;;1.63;;
52104;SDS011;38103;42.776;23.112;2023-04-15T13:03:01;5.63;;;1.70;;
52104;SDS011;38103;42.776;23.112;2023-04-15T13:05:27;6.07;;;1.90;;
52104;SDS011;38103;42.776;23.112;2023-04-15T13:07:52;7.30;;;1.92;;
52104;SDS011;38103;42.776;23.112;2023-04-15T13:10:18;3.65;;;1.50;;
52104;SDS011;38103;42.776;23.112;2023-04-15T13:12:43;6.85;;;1.92;;
52104;SDS011;38103;42.776;23.112;2023-04-15T13:15:10;5.82;;;1.70;;
52104;SDS011;38103;42.776;23.112;2023-04-15T13:17:36;5.85;;;1.92;;
52104;SDS011;38103;42.776;23.112;2023-04-15T13:20:02;4.43;;;1.50;;
52104;SDS011;38103;42.776;23.112;2023-04-15T13:22:28;5.57;;;1.60;;
52104;SDS011;38103;42.776;23.112;2023-04-15T13:24:53;3.85;;;1.50;;
52104;SDS011;38103;42.776;23.112;2023-04-15T13:27:19;5.40;;;1.60;;
52104;SDS011;38103;42.776;23.112;2023-04-15T13:29:44;4.63;;;1.60;;
52104;SDS011;38103;42.776;23.112;2023-04-15T13:32:09;5.60;;;1.80;;
52104;SDS011;38103;42.776;23.112;2023-04-15T13:34:35;2.90;;;1.52;;
52104;SDS011;38103;42.776;23.112;2023-04-15T13:37:05;4.97;;;1.50;;
52104;SDS011;38103;42.776;23.112;2023-04-15T13:39:31;7.50;;;1.95;;
52104;SDS011;38103;42.776;23.112;2023-04-15T13:41:57;6.20;;;1.77;;
52104;SDS011;38103;42.776;23.112;2023-04-15T13:44:23;9.02;;;2.72;;
52104;SDS011;38103;42.776;23.112;2023-04-15T13:46:48;8.63;;;1.85;;
52104;SDS011;38103;42.776;23.112;2023-04-15T13:49:14;5.72;;;1.90;;
52104;SDS011;38103;42.776;23.112;2023-04-15T13:51:40;7.20;;;2.20;;
52104;SDS011;38103;42.776;23.112;2023-04-15T13:54:06;7.60;;;1.77;;
52104;SDS011;38103;42.776;23.112;2023-04-15T13:56:31;4.55;;;1.70;;
52104;SDS011;38103;42.776;23.112;2023-04-15T13:58:57;5.95;;;1.55;;
52104;SDS011;38103;42.776;23.112;2023-04-15T14:01:25;5.00;;;1.52;;
52104;SDS011;38103;42.776;23.112;2023-04-15T14:03:51;7.00;;;1.70;;
52104;SDS011;38103;42.776;23.112;2023-04-15T14:06:16;6.60;;;1.80;;
52104;SDS011;38103;42.776;23.112;2023-04-15T14:08:42;4.72;;;1.50;;
52104;SDS011;38103;42.776;23.112;2023-04-15T14:11:07;5.03;;;1.60;;
52104;SDS011;38103;42.776;23.112;2023-04-15T14:13:33;5.03;;;1.63;;
52104;SDS011;38103;42.776;23.112;2023-04-15T14:15:58;4.55;;;1.70;;
52104;SDS011;38103;42.776;23.112;2023-04-15T14:18:24;3.67;;;1.40;;
52104;SDS011;38103;42.776;23.112;2023-04-15T14:20:49;5.57;;;1.70;;
52104;SDS011;38103;42.776;23.112;2023-04-15T14:23:15;5.47;;;1.80;;
52104;SDS011;38103;42.776;23.112;2023-04-15T14:25:41;5.88;;;1.65;;
52104;SDS011;38103;42.776;23.112;2023-04-15T14:28:06;6.95;;;1.67;;
52104;SDS011;38103;42.776;23.112;2023-04-15T14:30:31;6.63;;;1.63;;
52104;SDS011;38103;42.776;23.112;2023-04-15T14:32:57;4.30;;;1.45;;
52104;SDS011;38103;42.776;23.112;2023-04-15T14:35:22;5.97;;;1.80;;
52104;SDS011;38103;42.776;23.112;2023-04-15T14:37:50;4.97;;;1.50;;
52104;SDS011;38103;42.776;23.112;2023-04-15T14:40:16;4.78;;;1.38;;
52104;SDS011;38103;42.776;23.112;2023-04-15T14:42:42;4.07;;;1.60;;
52104;SDS011;38103;42.776;23.112;2023-04-15T14:45:07;5.57;;;1.55;;
52104;SDS011;38103;42.776;23.112;2023-04-15T14:47:33;4.40;;;1.88;;
52104;SDS011;38103;42.776;23.112;2023-04-15T14:49:58;7.93;;;1.92;;
52104;SDS011;38103;42.776;23.112;2023-04-15T14:52:24;5.70;;;1.58;;
52104;SDS011;38103;42.776;23.112;2023-04-15T14:54:49;5.85;;;1.50;;
52104;SDS011;38103;42.776;23.112;2023-04-15T14:57:15;6.82;;;1.70;;
52104;SDS011;38103;42.776;23.112;2023-04-15T14:59:40;6.35;;;1.70;;
52104;SDS011;38103;42.776;23.112;2023-04-15T15:02:06;7.50;;;1.70;;
52104;SDS011;38103;42.776;23.112;2023-04-15T15:04:33;4.93;;;1.63;;
52104;SDS011;38103;42.776;23.112;2023-04-15T15:06:59;5.35;;;1.63;;
52104;SDS011;38103;42.776;23.112;2023-04-15T15:09:25;4.78;;;1.67;;
52104;SDS011;38103;42.776;23.112;2023-04-15T15:11:50;2.92;;;1.40;;
52104;SDS011;38103;42.776;23.112;2023-04-15T15:14:16;4.78;;;1.70;;
52104;SDS011;38103;42.776;23.112;2023-04-15T15:16:41;6.35;;;1.92;;
52104;SDS011;38103;42.776;23.112;2023-04-15T15:19:06;3.83;;;1.73;;
52104;SDS011;38103;42.776;23.112;2023-04-15T15:21:32;4.72;;;1.67;;
52104;SDS011;38103;42.776;23.112;2023-04-15T15:23:57;8.65;;;2.60;;
52104;SDS011;38103;42.776;23.112;2023-04-15T15:26:23;10.55;;;2.20;;
52104;SDS011;38103;42.776;23.112;2023-04-15T15:28:48;7.03;;;2.10;;
52104;SDS011;38103;42.776;23.112;2023-04-15T15:31:14;4.22;;;1.48;;
52104;SDS011;38103;42.776;23.112;2023-04-15T15:33:40;6.43;;;1.73;;
52104;SDS011;38103;42.776;23.112;2023-04-15T15:36:05;5.00;;;1.67;;
52104;SDS011;38103;42.776;23.112;2023-04-15T15:38:31;9.05;;;1.70;;
52104;SDS011;38103;42.776;23.112;2023-04-15T15:40:56;11.13;;;2.05;;
52104;SDS011;38103;42.776;23.112;2023-04-15T15:43:22;5.55;;;1.83;;
52104;SDS011;38103;42.776;23.112;2023-04-15T15:45:47;4.70;;;1.50;;
52104;SDS011;38103;42.776;23.112;2023-04-15T15:48:16;7.93;;;1.70;;
52104;SDS011;38103;42.776;23.112;2023-04-15T15:50:43;8.02;;;1.80;;
52104;SDS011;38103;42.776;23.112;2023-04-15T15:53:09;3.72;;;1.42;;
52104;SDS011;38103;42.776;23.112;2023-04-15T15:55:36;4.05;;;1.60;;
52104;SDS011;38103;42.776;23.112;2023-04-15T15:58:01;6.40;;;1.70;;
52104;SDS011;38103;42.776;23.112;2023-04-15T16:00:27;7.88;;;1.90;;
52104;SDS011;38103;42.776;23.112;2023-04-15T16:02:55;10.00;;;2.05;;
52104;SDS011;38103;42.776;23.112;2023-04-15T16:05:21;8.65;;;2.20;;
52104;SDS011;38103;42.776;23.112;2023-04-15T16:07:47;7.40;;;2.20;;
52104;SDS011;38103;42.776;23.112;2023-04-15T16:10:12;9.07;;;3.05;;
52104;SDS011;38103;42.776;23.112;2023-04-15T16:12:38;8.35;;;2.50;;
52104;SDS011;38103;42.776;23.112;2023-04-15T16:15:05;10.27;;;3.35;;